Las Vegas, Nevada (DRI) Weather observations

Data are for observation ending at time listed.
 Day   Time    Ave.   Ave.  Ave.  Vector   Max.   Stn.    Total    Solar   Ave.  
  of    of     Air    Rel.  Wind   Wind    Wind   Baro.  Precip.   Rad.    Soil  
Year   Day     Temp.  Hum.  Speed  Dir.    Gust   Pres.                    Temp. 
2014   (PST)    F      %     mph   deg.    mph     mb.     in.     W/m2     F   
------------------------------------------------------------------------------
 210   20:10   96.9    22    1.8     2      3.8   941.6    0.00       0    101.2
 210   20:20   96.8    22    1.3   327      3.1   941.7    0.00       0    101.2
 210   20:30   96.5    22    2.1   334      5.3   941.8    0.00       0    101.1
 210   20:40   96.4    23    1.2   319      3.9   941.8    0.00       0    101.1
 210   20:50   96.4    23    1.2   300      3.4   941.8    0.00       0    101.0
 210   21:00   96.1    23    0.8   251      2.6   941.8    0.00       0    101.0
 210   21:10   96.0    23    1.6   262      3.6   941.9    0.00       0    101.0
 210   21:20   95.8    23    1.5   251      3.6   941.9    0.00       0    100.9
 210   21:30   95.6    24    1.3   280      3.8   942.0    0.00       0    100.9
 210   21:40   95.5    24    0.5   340      2.1   942.0    0.00       0    100.8
 210   21:50   95.2    24    1.0   292      2.9   942.0    0.00       0    100.7
 210   22:00   94.9    25    1.2   287      3.1   942.0    0.00       0    100.7
 210   22:10   94.7    25    1.4   250      3.9   942.1    0.00       0    100.6
 210   22:20   94.3    25    1.0   234      3.2   942.2    0.00       0    100.5
 210   22:30   94.2    25    1.1   252      3.3   942.1    0.00       1    100.4
 210   22:40   94.0    25    0.9   256      3.4   942.1    0.00       1    100.3
 210   22:50   94.0    25    1.0   315      3.1   942.2    0.00       0    100.2
 210   23:00   93.6    26    1.4   355      3.7   942.1    0.00       1    100.2
 210   23:10   93.0    26    1.3   311      2.9   942.1    0.00       1    100.1
 210   23:20   92.4    27    1.6   318      3.6   942.0    0.00       0    100.0
 210   23:30   92.0    27    1.6   312      3.1   942.0    0.00       1    99.9
 210   23:40   91.5    28    1.4   322      2.8   942.0    0.00       1    99.8
 210   23:50   91.2    28    1.7   343      4.0   942.0    0.00       1    99.8
 211    0:00   90.7    29    1.4   353      3.3   942.0    0.00       2    99.7
 211    0:10   90.2    30    0.1    71      0.9   942.1    0.00       2    99.6
 211    0:20   89.9    30    0.2   353      1.2   942.1    0.00       1    99.5
 211    0:30   90.1    30    0.7   344      2.3   942.1    0.00       2    99.4
 211    0:40   90.2    29    1.4   340      4.5   942.1    0.00       1    99.4
 211    0:50   89.9    30    0.8   292      2.7   942.1    0.00       2    99.3
 211    1:00   90.0    29    1.0   299      3.0   942.1    0.00       1    99.2
 211    1:10   89.9    30    1.3   324      2.6   942.1    0.00       2    99.1
 211    1:20   89.9    30    1.6   299      3.8   942.1    0.00       2    99.0
 211    1:30   90.1    29    1.1   330      3.8   942.0    0.00       2    98.9
 211    1:40   89.9    30    1.5   348      4.0   942.0    0.00       2    98.9
 211    1:50   89.4    30    0.8    23      1.7   942.1    0.00       1    98.8
 211    2:00   88.9    31    0.8    30      2.6   942.2    0.00       2    98.7
 211    2:10   88.8    31    0.4   359      1.6   942.2    0.00       2    98.6
 211    2:20   88.7    31    0.5   309      2.0   942.2    0.00       2    98.5
 211    2:30   88.8    31    0.8   325      2.2   942.3    0.00       2    98.4
 211    2:40   88.6    31    0.1   359      1.2   942.3    0.00       2    98.3
 211    2:50   88.2    32    0.0   309      0.8   942.3    0.00       1    98.3
 211    3:00   87.3    33    0.1   173      1.5   942.3    0.00       2    98.2
 211    3:10   86.5    35    0.3   177      1.6   942.2    0.00       1    98.1
 211    3:20   86.0    37    0.2   166      1.8   942.2    0.00       2    98.0
 211    3:30   85.8    38    0.6   185      2.0   942.1    0.00       1    97.9
 211    3:40   85.4    38    0.0   217      0.4   942.2    0.00       2    97.8
 211    3:50   85.3    38    0.5   182      2.5   942.2    0.00       1    97.7
 211    4:00   85.6    37    1.1   191      2.8   942.2    0.00       2    97.6
 211    4:10   86.2    35    1.7   176      2.9   942.3    0.00       2    97.5
 211    4:20   86.6    34    0.7   164      1.8   942.4    0.00       2    97.4
 211    4:30   86.4    35    0.7   171      1.8   942.4    0.00       3    97.4
 211    4:40   85.9    36    0.2   156      1.4   942.5    0.00       3    97.3
 211    4:50   85.6    37    0.0     0      0.0   942.6    0.00       3    97.2
 211    5:00   85.2    38    0.1    49      1.2   942.7    0.00       8    97.1
 211    5:10   85.0    38    0.1    10      0.7   942.9    0.00      19    97.0
 211    5:20   85.7    38    1.2    20      3.9   943.0    0.00      20    96.9
 211    5:30   86.1    37    0.4     9      1.4   943.2    0.00      25    96.9
 211    5:40   86.1    38    0.2     1      1.9   943.3    0.00      24    96.7
 211    5:50   86.3    37    0.5    17      4.8   943.3    0.00      24    96.7
 211    6:00   87.5    33    2.0   346      6.1   943.3    0.00      24    96.5
 211    6:10   87.9    33    0.8     5      2.9   943.4    0.00      24    96.4
 211    6:20   88.0    33    0.9    26      2.6   943.4    0.00      29    96.4
 211    6:30   88.6    32    1.7    48      4.5   943.4    0.00      31    96.3
 211    6:40   89.0    32    1.8    40      5.2   943.5    0.00      32    96.2
 211    6:50   89.5    31    2.6    35      7.1   943.6    0.00      37    96.1
 211    7:00   89.9    31    2.2    36      5.0   943.7    0.00      31    96.1
 211    7:10   90.3    30    2.5    45      5.7   943.7    0.00      32    96.0
 211    7:20   90.5    30    2.3    60      6.1   943.8    0.00      38    95.9
 211    7:30   90.6    30    2.5    53      5.2   943.7    0.00      39    95.8
 211    7:40   91.0    30    1.9    56      4.8   943.6    0.00      50    95.8
 211    7:50   91.2    29    2.1    54      5.1   943.6    0.00      55    95.7
 211    8:00   91.5    28    1.9    52      5.2   943.6    0.00     134    95.6
 211    8:10   92.0    27    1.7    47      4.7   943.5    0.00     118    95.5
 211    8:20   92.3    27    1.5    48      4.5   943.5    0.00     277    95.5
 211    8:30   92.6    27    1.4    41      4.5   943.5    0.00     140    95.4
 211    8:40   93.2    26    1.4   198      5.0   943.6    0.00     632    95.4
 211    8:50   94.0    26    0.8    45      3.9   943.6    0.00     659    95.3
 211    9:00   94.6    25    1.7    40      4.7   943.6    0.00     750    95.3
 211    9:10   94.6    25    2.2    45      5.0   943.6    0.00     793    95.3
 211    9:20   94.9    25    0.8   355      3.2   943.6    0.00     820    95.2
 211    9:30   96.6    24    1.1    78      3.9   943.6    0.00     844    95.2
 211    9:40   96.5    24    2.5    39      6.1   943.6    0.00     866    95.1
 211    9:50   96.4    23    1.8    42      6.1   943.5    0.00     892    95.1
 211   10:00   96.9    23    2.1    12      5.0   943.4    0.00     912    95.0
 211   10:10   97.1    23    2.0    30      6.0   943.4    0.00     926    95.0
 211   10:20   97.2    23    2.3   360      7.7   943.3    0.00     942    95.0
 211   10:30   98.3    22    2.4   255      6.9   943.2    0.00     955    95.0
 211   10:40   98.7    22    2.4   256      6.0   943.1    0.00     970    94.9
 211   10:50   98.3    22    2.3   226      5.3   943.1    0.00     980    95.0
 211   11:00  100.0    21    2.2   232      5.6   942.9    0.00     990    95.0
 211   11:10  100.8    20    1.6   258      4.7   942.8    0.00     997    95.0
 211   11:20  100.7    20    2.7   346      5.5   942.7    0.00    1005    95.1
 211   11:30  100.9    20    1.7   334      5.1   942.6    0.00    1011    95.2
 211   11:40  101.7    18    3.6   321      9.6   942.6    0.00    1019    95.3
 211   11:50  101.5    18    3.8    10      7.5   942.5    0.00    1021    95.5
 211   12:00  102.0    18    2.2   319      4.8   942.4    0.00    1022    95.7
 211   12:10  102.3    17    2.7     1      6.6   942.4    0.00    1021    95.8
 211   12:20  102.3    17    3.2   359      9.8   942.2    0.00    1022    96.0
 211   12:30  103.1    16    1.5   283      4.3   942.1    0.00    1019    96.3
 211   12:40  103.9    16    2.8   337      6.5   941.9    0.00    1013    96.6
 211   12:50  103.5    16    2.6     1      7.1   941.9    0.00    1001    96.8
 211   13:00  103.8    15    2.9   347      7.1   941.8    0.00    1001    97.0
 211   13:10  104.8    15    3.6     6      6.1   941.7    0.00    1004    97.2
 211   13:20  104.1    15    2.9    20      6.6   941.5    0.00    1019    97.5
 211   13:30  105.4    14    2.1   317      6.0   941.4    0.00     987    97.8
 211   13:40  105.6    14    4.1     6      9.3   941.3    0.00     941    98.0
 211   13:50  104.3    14    2.7    12      7.8   941.2    0.00     469    98.3
 211   14:00  103.1    15    3.9   333      9.1   941.1    0.00     367    98.5
 211   14:10  102.7    15    3.7   319     10.4   941.0    0.00     365    98.7
 211   14:20  102.6    15    3.3   318      9.0   940.8    0.00     550    99.0
 211   14:30  102.6    14    3.1   287      9.3   940.8    0.00     304    99.4
 211   14:40  104.1    13    2.5   284      6.4   940.6    0.00     852    99.7
 211   14:50  105.2    13    1.9   275      7.2   940.4    0.00     812    99.9
 211   15:00  105.8    12    2.8   341      6.2   940.4    0.00     761    100.1
 211   15:10  105.7    12    2.6   326      6.8   940.2    0.00     723    100.3
 211   15:20  106.6    12    2.3   322      6.3   939.9    0.00     679    100.6
 211   15:30  105.9    12    4.0   344      8.4   939.8    0.00     644    100.8
 211   15:40  106.0    13    2.7   324      6.2   939.7    0.00     618    101.0
 211   15:50  106.3    13    3.0   352      6.3   939.5    0.00     568    101.2
 211   16:00  106.6    13    1.9    12      6.1   939.4    0.00     547    101.4
 211   16:10  106.9    13    2.2   342      6.0   939.3    0.00     515    101.6
 211   16:20  106.8    13    2.6   323      5.9   939.2    0.00     477    101.8
 211   16:30  106.9    14    1.3   253      3.6   939.2    0.00     439    101.9
 211   16:40  106.1    14    2.9   201      6.0   939.0    0.00     401    102.1
 211   16:50  105.2    14    3.1   220     10.4   938.9    0.00     362    102.3
 211   17:00  104.9    15    2.5   185      5.9   938.9    0.00     286    102.5
 211   17:10  105.1    15    1.3   174      5.1   938.8    0.00     269    102.5
 211   17:20  105.8    15    1.5   181      3.4   938.8    0.00     261    102.7
 211   17:30  104.8    15    2.1   209      4.5   938.8    0.00     152    102.9
 211   17:40  104.8    15    1.9    11      4.8   938.8    0.00      94    103.1
 211   17:50  104.2    15    2.4    19      4.1   939.0    0.00      47    103.2
 211   18:00  103.4    15    2.9    16      5.5   939.1    0.00      27    103.4
 211   18:10  102.9    15    2.3    32      5.4   939.1    0.00      17    103.4
 211   18:20  102.9    15    3.0    18      8.2   939.4    0.00      11    103.5
 211   18:30  100.9    16    7.0   353     16.3   939.7    0.00       5    103.5
 211   18:40   99.7    17    6.4   352     13.6   940.0    0.00       3    103.6
 211   18:50   99.6    17    4.6   332     12.2   940.2    0.00       0    103.7
 211   19:00   99.2    17    5.1   338     10.7   940.4    0.00       0    103.7
 211   19:10   98.7    17    6.0   343     11.0   940.6    0.00       0    103.7
 211   19:20   97.9    18    8.5   320     16.2   940.8    0.00       0    103.7
 211   19:30   97.3    19    7.5   315     14.7   940.8    0.00       0    103.7
 211   19:40   97.0    19    8.7   348     17.7   940.8    0.00       0    103.7
 211   19:50   97.2    18    8.5   335     19.3   940.9    0.00       0    103.7
 211   20:00   97.0    20    6.8   342     16.3   940.7    0.00       0    103.7

Return to Las Vegas, Nevada graphs page.


Western Regional Climate Center,wrcc@dri.edu